Аэропорт: Нариманово. Астрахань

ICAO: URWA

METAR:
2018/11/19 10:00
URWA 191000Z 04002MPS 340V070 CAVOK 07/M11 Q1027 R09/010070 NOSIG RMK QFE772/1030
METAR:
2018/10/17 18:00
TAF URWA 171700Z 1718/1803 20003MPS 3100 BR SCT011 
      TEMPO 1718/1721 0800 FG BKN003 
      BECMG 1721/1723 0300 FG OVC002